Nearby METAR Reports

 

KSNA - John Wayne Airport, California, USA
Distance from station: NE 2mi, 3km
Updated: Sat, 06-Mar-2021 10:00pm PST
Mostly cloudy
Mostly cloudy
 Wind from SSE
Wind: SSE 3 mph , 6 km/h
Temperature: 55°F , 13°C
Dew Point: 48°F , 9°C
Humidity: 77%
Barometer: 30.03 inHg , 1016.9 hPa
Clouds: Mostly cloudy
Visibility: 9 miles , 14 km
Cloud details: Mostly cloudy 1500 ft
2021/03/07 06:00 KSNA 070600Z 15003KT 9SM BKN015 13/09 A3003 RMK AO2 T01330094
KSLI - Los Alamitos Aaf, California, USA
Distance from station: NW 11mi, 18km
Updated: Sat, 06-Mar-2021 9:58pm PST
Clear
Clear
 Wind from ESE
Wind: ESE 3 mph , 6 km/h
Temperature: 52°F , 11°C
Dew Point: 52°F , 11°C
Humidity: 100%
Barometer: 30.03 inHg , 1016.9 hPa
Clouds: Clear
Visibility: 10 miles , 16 km
2021/03/07 05:58 KSLI 070558Z AUTO 12003KT 10SM CLR 11/11 A3003 RMK AO2 SLP172 T01100110 10176 20108 50009
 
KFUL - Fullerton Muni, California, USA
Distance from station: NNW 16mi, 26km
Updated: Sat, 06-Mar-2021 9:53pm PST
Few Clouds
Few Clouds
 Wind from ESE
Wind: ESE 5 mph , 7 km/h
Temperature: 55°F , 13°C
Dew Point: 48°F , 9°C
Humidity: 77%
Barometer: 30.03 inHg , 1016.9 hPa
Clouds: Few Clouds
Visibility: 10 miles , 16 km
Cloud details: Few Clouds 2000 ft
2021/03/07 05:53 KFUL 070553Z AUTO 11004KT 10SM FEW020 13/09 A3003 RMK AO2 SLP167 T01280094 10189 20128 51011
KLGB - Long Beach Muni, California, USA
Distance from station: NW 19mi, 30km
Updated: Sat, 06-Mar-2021 9:53pm PST
Clear
Clear
 Wind from calm
Wind: Calm
Temperature: 55°F , 13°C
Dew Point: 48°F , 9°C
Humidity: 77%
Barometer: 30.03 inHg , 1016.9 hPa
Clouds: Clear
Visibility: 10 miles , 16 km
2021/03/07 05:53 KLGB 070553Z 00000KT 10SM CLR 13/09 A3003 RMK AO2 SLP167 T01280094 10183 20122 50010
 
KAJO - Corona Muni, California, USA
Distance from station: NE 24mi, 39km
Updated: Sat, 06-Mar-2021 9:56pm PST
Clear
Clear
 Wind from calm
Wind: Calm
Temperature: 52°F , 11°C
Dew Point: 48°F , 9°C
Humidity: 88%
Barometer: 30.04 inHg , 1017.3 hPa
Clouds: Clear
Visibility: 10 miles , 16 km
2021/03/07 05:56 KAJO 070556Z AUTO 00000KT 10SM CLR 11/09 A3004 RMK AO2 SLP169 T01110094 10194 20111 51020
KTOA - Torrance Municip, California, USA
Distance from station: WNW 26mi, 42km
Updated: Sat, 06-Mar-2021 5:52pm PST
NOT Current
Partly cloudy
Partly cloudy
 Wind from SW
Wind: SW 7 mph , 11 km/h
Temperature: 55°F , 13°C
Dew Point: 52°F , 11°C
Humidity: 88%
Barometer: 29.99 inHg , 1015.6 hPa
Clouds: Partly cloudy
Visibility: 10 miles , 16 km
Cloud details: Partly cloudy 1200 ft
2021/03/07 01:52 KTOA 070152Z 23006KT 10SM SCT012 13/11 A2999 RMK LAST
 
KCNO - Chino, California, USA
Distance from station: NE 28mi, 45km
Updated: Sat, 06-Mar-2021 9:53pm PST
Clear
Clear
 Wind from calm
Wind: Calm
Temperature: 48°F , 9°C
Dew Point: 45°F , 7°C
Humidity: 87%
Barometer: 30.04 inHg , 1017.3 hPa
Clouds: Clear
Visibility: 9 miles , 14 km
2021/03/07 05:53 KCNO 070553Z AUTO 00000KT 9SM CLR 09/07 A3004 RMK AO2 SLP171 T00940072 10183 20089 51016
KEMT - El Monte, California, USA
Distance from station: NNW 30mi, 48km
Updated: Sat, 06-Mar-2021 6:45pm PST
NOT Current
Clear
Clear
 Wind from SW
Wind: SW 6 mph , 9 km/h
Temperature: 36°F , 2°C
Wind Chill: 31°F , -1°C
Dew Point: 50°F , 10°C
Humidity: 172%
Barometer: 29.99 inHg , 1015.6 hPa
Clouds: Clear
Visibility: 10 miles , 16 km
2021/03/07 02:45 KEMT 070245Z 23005KT 10SM CLR 02/10 A2999
 
KHHR - Hawthorne, California, USA
Distance from station: NW 31mi, 50km
Updated: Sat, 06-Mar-2021 9:53pm PST
Partly cloudy
Partly cloudy
 Wind from SE
Wind: SE 3 mph , 6 km/h
Temperature: 55°F , 13°C
Dew Point: 50°F , 10°C
Humidity: 82%
Barometer: 30.03 inHg , 1016.9 hPa
Clouds: Partly cloudy
Visibility: 10 miles , 16 km
Cloud details: Partly cloudy 1200 ft
2021/03/07 05:53 KHHR 070553Z AUTO 13003KT 10SM SCT012 13/10 A3003 RMK AO2 SLP169 T01280100 10161 20128 50011 $
KPOC - La Verne/Bracket, California, USA
Distance from station: NNE 32mi, 52km
Updated: Sat, 06-Mar-2021 8:47pm PST
NOT Current
Clear
Clear
 Wind from SW
Wind: SW 8 mph , 13 km/h
Temperature: 50°F , 10°C
Wind Chill: 47°F , 8°C
Dew Point: 50°F , 10°C
Humidity: 100%
Barometer: 30.03 inHg , 1016.9 hPa
Clouds: Clear
Visibility: 10 miles , 16 km
2021/03/07 04:47 KPOC 070447Z 23007KT 10SM CLR 10/10 A3003 RMK LAST
 
KONT - Ontario, California, USA
Distance from station: NNE 33mi, 53km
Updated: Sat, 06-Mar-2021 9:53pm PST
Partly cloudy
Partly cloudy
 Wind from W
Wind: W 3 mph , 6 km/h
Temperature: 52°F , 11°C
Dew Point: 46°F , 8°C
Humidity: 82%
Barometer: 30.03 inHg , 1016.9 hPa
Clouds: Partly cloudy
Visibility: 10 miles , 16 km
Cloud details: Few Clouds 1400 ft
Partly cloudy 6000 ft
2021/03/07 05:53 KONT 070553Z 26003KT 10SM FEW014 SCT060 11/08 A3003 RMK AO2 SLP167 T01110083 10194 20106 51017
KRAL - Riverside, California, USA
Distance from station: NE 33mi, 53km
Updated: Sat, 06-Mar-2021 9:53pm PST
Clear
Clear
 Wind from calm
Wind: Calm
Temperature: 54°F , 12°C
Dew Point: 48°F , 9°C
Humidity: 82%
Barometer: 30.03 inHg , 1016.9 hPa
Clouds: Clear
Visibility: 10 miles , 16 km
2021/03/07 05:53 KRAL 070553Z AUTO 00000KT 10SM CLR 12/09 A3003 RMK AO2 SLP160 T01170089 10206 20111 51018 $
 
KCQT - USC/Los Angeles, California, USA
Distance from station: NW 34mi, 54km
Updated: Sat, 06-Mar-2021 9:52pm PST
Overcast
Overcast
 Wind from calm
Wind: Calm
Temperature: 57°F , 14°C
Dew Point: 50°F , 10°C
Humidity: 77%
Barometer: 30.02 inHg , 1016.6 hPa
Clouds: Overcast
Visibility: 10 miles , 16 km
Cloud details: Overcast 1300 ft
2021/03/07 05:52 KCQT 070552Z AUTO 00000KT 10SM OVC013 14/10 A3002 RMK AO2 SLP165 T01440100 10178 20139 51010
KLAX - LAX/Los Angeles, California, USA
Distance from station: NW 34mi, 55km
Updated: Sat, 06-Mar-2021 9:53pm PST
Mostly cloudy
Mostly cloudy
 Wind from calm
Wind: Calm
Temperature: 54°F , 12°C
Dew Point: 50°F , 10°C
Humidity: 88%
Barometer: 30.03 inHg , 1016.9 hPa
Clouds: Mostly cloudy
Visibility: 10 miles , 16 km
Cloud details: Mostly cloudy 1400 ft
2021/03/07 05:53 KLAX 070553Z 00000KT 10SM BKN014 12/10 A3003 RMK AO2 SLP167 T01220100 10156 20117 50011 $
 
KAVX - Avalon, California, USA
Distance from station: WSW 35mi, 56km
Updated: Sat, 06-Mar-2021 9:51pm PST
Clear
Clear
 Wind from NNE
Wind: NNE 5 mph , 7 km/h
Temperature: 48°F , 9°C
Wind Chill: 46°F , 8°C
Dew Point: 43°F , 6°C
Humidity: 82%
Barometer: 30.02 inHg , 1016.6 hPa
Clouds: Clear
Visibility: 10 miles , 16 km
2021/03/07 05:51 KAVX 070551Z AUTO 02004KT 10SM CLR 09/06 A3002 RMK AO2 SLP165 T00940061 10111 20089 50006